Maria S. Merian — DBBT — position and weather

sailwx.info

Track history (hours):
 
Tides and Currents Weather Stations Pressure Air Temp Water Temp Dewpoint Dewpoint Depression Visibility Wind Speed Wind Dir Waves Ship Positions

Oceanographic research ship Maria S. Merian (Germany)

Last reported at 2015-Jun-30 13:31 UTC. Time now 2015-Jun-30 14:23 UTC.
Position N 64°10' W 051°42'.

Length 94.8 m; beam 19.2 m; draft 6.5 m.

Type: Other ship. MMSI: 211753000.

Date/timePositionNaut miles runAvg speedWind from/ knotsBaromVisibWave heightAir tempDewpointWater temp
2015-Jun-30 13:31N 64°10' W 051°42'0 0.0
2015-Jun-30 12:31N 64°10' W 051°42'0 0.0
2015-Jun-30 11:33N 64°10' W 051°42'1 0.5
2015-Jun-30 10:33N 64°10' W 051°43'0 0.0
2015-Jun-30 09:33N 64°10' W 051°43'0 0.0
2015-Jun-30 08:33N 64°10' W 051°43'0 0.0
2015-Jun-30 07:33N 64°10' W 051°43'0 0.0
2015-Jun-30 06:33N 64°10' W 051°43'0 0.0
2015-Jun-30 05:33N 64°10' W 051°43'0 0.0
2015-Jun-30 04:33N 64°10' W 051°43'0 0.0
2015-Jun-30 03:33N 64°10' W 051°43'0 0.0
2015-Jun-30 02:33N 64°10' W 051°43'0 0.0
2015-Jun-30 01:33N 64°10' W 051°43'0 0.0
2015-Jun-30 00:33N 64°10' W 051°43'0 0.0
2015-Jun-29 23:34N 64°10' W 051°43'2 1.7
2015-Jun-29 22:33N 64°11' W 051°47'8 7.8
2015-Jun-29 21:33N 64°18' W 051°39'8 8.0
2015-Jun-29 20:33N 64°11' W 051°47'2 1.7
2015-Jun-29 19:33N 64°10' W 051°43'0 0.0
2015-Jun-29 18:33N 64°10' W 051°43'0 0.0
2015-Jun-29 17:32N 64°10' W 051°43'0 0.0
2015-Jun-29 16:32N 64°10' W 051°43'0 0.0
2015-Jun-29 15:31N 64°10' W 051°43'0 0.0
2015-Jun-29 14:31N 64°10' W 051°43'0 0.0
2015-Jun-29 13:33N 64°10' W 051°43'0 0.0
2015-Jun-29 12:33N 64°10' W 051°43'0 0.0
2015-Jun-29 11:34N 64°10' W 051°43'0 0.0
2015-Jun-29 10:33N 64°10' W 051°43'0 0.0
2015-Jun-29 09:33N 64°10' W 051°43'2 3.4
2015-Jun-29 09:00N 64°12' W 051°42'2 4.5 999 1015.0 7.4 4.6 5.4
2015-Jun-29 08:33N 64°10' W 051°43'0 0.0
2015-Jun-29 07:33N 64°10' W 051°43'0 0.0
2015-Jun-29 06:33N 64°10' W 051°43'2 3.4
2015-Jun-29 06:00N 64°12' W 051°42'2 4.5 200 / 61014.8 6.0 3.8 5.3
2015-Jun-29 05:33N 64°10' W 051°43'2 3.4
2015-Jun-29 05:00N 64°12' W 051°42'2 4.5 200 / 81014.4 6.2 3.3 5.0
2015-Jun-29 04:33N 64°10' W 051°43'0 0.0
2015-Jun-29 03:33N 64°10' W 051°43'0 0.0
2015-Jun-29 02:33N 64°10' W 051°43'2 3.4
2015-Jun-29 02:00N 64°12' W 051°42'2 4.4 190 / 81014.6 10.3 2.4 5.2
2015-Jun-29 01:33N 64°10' W 051°43'2 3.5
2015-Jun-29 01:00N 64°12' W 051°42'2 4.4 210 / 61014.4 10.8 2.9 5.0
2015-Jun-29 00:33N 64°10' W 051°43'2 3.4
2015-Jun-29 00:00N 64°12' W 051°42'2 4.5 999 / 21014.2 12.4 5.3 5.2
2015-Jun-28 23:34N 64°10' W 051°43'0 0.0
2015-Jun-28 22:33N 64°10' W 051°43'0 0.0
2015-Jun-28 21:34N 64°10' W 051°43'2 3.4
2015-Jun-28 21:00N 64°12' W 051°42'2 4.4 270 / 61013.7 14.1 4.1 5.1
2015-Jun-28 20:33N 64°10' W 051°43'0 0.0
2015-Jun-28 19:33N 64°10' W 051°43'0 0.0
2015-Jun-28 18:33N 64°10' W 051°43'0 0.0
2015-Jun-28 17:33N 64°10' W 051°43'0 0.0
2015-Jun-28 16:34N 64°10' W 051°43'0 0.0
2015-Jun-28 15:33N 64°10' W 051°43'0 0.0
2015-Jun-28 14:33N 64°10' W 051°43'0 0.0
2015-Jun-28 13:33N 64°10' W 051°43'0 0.0
2015-Jun-28 12:33N 64°10' W 051°43'0 0.0
2015-Jun-28 11:34N 64°10' W 051°43'0 0.0
2015-Jun-28 10:33N 64°10' W 051°43'0 0.0
2015-Jun-28 09:33N 64°10' W 051°43'2 3.4
2015-Jun-28 09:00N 64°12' W 051°42'2 4.4 300 / 41011.9 6.0 3.9 4.5
2015-Jun-28 08:33N 64°10' W 051°43'0 0.0
2015-Jun-28 07:33N 64°10' W 051°43'0 0.0
2015-Jun-28 06:33N 64°10' W 051°43'0 0.0
2015-Jun-28 05:33N 64°10' W 051°43'0 0.0
2015-Jun-28 04:33N 64°10' W 051°43'0 0.0
2015-Jun-28 03:33N 64°10' W 051°43'0 0.0
2015-Jun-28 02:34N 64°10' W 051°43'2 3.4
2015-Jun-28 02:00N 64°12' W 051°42'2 4.5 340 / 61011.4 8.8 4.1 4.3
2015-Jun-28 01:34N 64°10' W 051°43'2 3.4
2015-Jun-28 01:00N 64°12' W 051°42'2 4.5 320 / 61011.6 8.4 4.1 4.1
2015-Jun-28 00:33N 64°10' W 051°43'2 3.4
2015-Jun-28 00:00N 64°12' W 051°42'2 4.5 320 / 61011.3 10.2 4.3 4.0
2015-Jun-27 23:33N 64°10' W 051°43'0 0.0
2015-Jun-27 22:33N 64°10' W 051°43'2 3.4
2015-Jun-27 22:00N 64°12' W 051°42'2 4.5 320 / 81011.1 11.6 4.3 4.3
2015-Jun-27 21:33N 64°10' W 051°43'2 3.4
2015-Jun-27 21:00N 64°12' W 051°42'2 4.5 310 / 81011.3 11.9 3.6 4.3
2015-Jun-27 20:33N 64°10' W 051°43'0 0.0
2015-Jun-27 19:34N 64°10' W 051°43'0 0.0
2015-Jun-27 18:33N 64°10' W 051°43'2 3.4
2015-Jun-27 18:00N 64°12' W 051°42'2 4.5 300 / 81011.6 12.3 4.5 4.3
2015-Jun-27 17:33N 64°10' W 051°43'0 0.0
2015-Jun-27 16:33N 64°10' W 051°43'2 3.4
2015-Jun-27 16:00N 64°12' W 051°42'2 4.5 260 / 61011.9 12.7 5.4 4.1
2015-Jun-27 15:34N 64°10' W 051°43'0 0.0
2015-Jun-27 14:33N 64°10' W 051°43'2 3.4
2015-Jun-27 14:00N 64°12' W 051°42'2 4.5 999 1012.3 12.2 6.2 3.7
2015-Jun-27 13:34N 64°10' W 051°43'0 0.0
2015-Jun-27 12:33N 64°10' W 051°43'2 3.4
2015-Jun-27 12:00N 64°12' W 051°42'3 6.1 999 / 21012.7 8.6 6.8 3.6
2015-Jun-27 11:34N 64°09' W 051°44'813.8
2015-Jun-27 11:00N 64°06' W 052°00'1 1.3 350 / 41012.6 5.8 5.7 4.7
2015-Jun-27 10:33N 64°06' W 052°01'15 9.8
2015-Jun-27 09:00N 63°54' W 052°24'14 5.0 310 / 61012.6 3.1 3.0 3.3
2015-Jun-27 06:13N 63°41' W 052°13'3 5.0
2015-Jun-27 05:34N 63°38' W 052°14'5 4.7
2015-Jun-27 04:33N 63°33' W 052°18'5 5.0
2015-Jun-27 03:33N 63°31' W 052°28'4 6.7
2015-Jun-27 03:00N 63°30' W 052°36'1 3.3 320 / 81012.8 2.4 2.1 3.7
2015-Jun-27 02:33N 63°29' W 052°38'5 5.0
2015-Jun-27 01:34N 63°26' W 052°47'3 3.4
2015-Jun-27 00:34N 63°23' W 052°49'4 3.7
2015-Jun-26 23:33N 63°20' W 052°45'4 3.7
2015-Jun-26 22:33N 63°16' W 052°41'4 4.1
2015-Jun-26 21:33N 63°13' W 052°37'4 4.4
2015-Jun-26 20:34N 63°09' W 052°32'4 4.2
2015-Jun-26 19:33N 63°05' W 052°28'5 4.6
2015-Jun-26 18:33N 63°01' W 052°23'35 5.3
2015-Jun-26 12:00N 62°30' W 051°48'69 9.8 320 / 121013.3 2.7 2.2 1.9
2015-Jun-26 05:00N 61°30' W 050°36'8 8.3 330 / 141013.3 3.7 2.7 1.8
2015-Jun-26 04:00N 61°24' W 050°24'3311.1 330 / 141013.4 3.1 2.5 2.2
2015-Jun-26 01:00N 61°00' W 049°36'1110.6 330 / 141014.1 3.7 2.3 2.0
2015-Jun-26 00:00N 60°54' W 049°18'1514.9 320 / 121014.3 5.0 2.3 3.3
2015-Jun-25 23:00N 60°42' W 049°00'1110.7 330 / 121014.3 6.0 1.9 2.2
2015-Jun-25 22:00N 60°36' W 048°42'1110.7 340 / 161014.2 6.6 1.9 2.2
2015-Jun-25 21:00N 60°30' W 048°24'6 2.0 340 / 101014.4 6.4 1.2 2.1
2015-Jun-25 18:00N 60°24' W 048°24'13 4.5 340 / 81015.2 8.3 0.6 4.0
2015-Jun-25 15:00N 60°12' W 048°36'0 0.0 040 / 61016.0 6.6 4.9 5.4
2015-Jun-25 14:00N 60°12' W 048°36'13 6.7 360 / 41016.4 7.4 4.5 5.5
2015-Jun-25 12:00N 60°00' W 048°48'0 0.0 230 / 41016.4 7.8 3.4 5.2
2015-Jun-25 11:00N 60°00' W 048°48'0 0.0 999 / 21016.4 6.7 3.8 5.1
2015-Jun-25 10:00N 60°00' W 048°48'1313.4 190 / 61016.1 6.2 3.8 4.8
2015-Jun-25 09:00N 59°48' W 049°00'1212.4 999 / 21016.7 5.3 4.5 4.8
2015-Jun-25 08:00N 59°36' W 049°06'9 8.5 360 / 81016.8 5.0 4.2 5.1
2015-Jun-25 07:00N 59°30' W 049°18'7 2.2 350 / 121016.7 5.9 4.5 4.9
2015-Jun-25 04:00N 59°24' W 049°24'1212.4 330 / 161017.0 5.8 4.5 5.4
2015-Jun-25 03:00N 59°12' W 049°30'9 8.6 320 / 171017.5 6.2 5.2 5.5
2015-Jun-25 02:00N 59°06' W 049°42'7 3.4 310 / 161018.1 6.0 5.2 5.6
2015-Jun-25 00:00N 59°00' W 049°48'19 6.3 320 / 121019.5 6.6 5.5 6.3
2015-Jun-24 21:00N 58°42' W 050°00'9 8.7 310 / 41020.8 6.8 5.0 5.5
2015-Jun-24 20:00N 58°36' W 050°12'7 6.8 999 / 21020.8 6.6 5.1 6.2
2015-Jun-24 19:00N 58°30' W 050°18'0 0.0 010 / 41020.8 8.4 5.6 5.2
2015-Jun-24 18:00N 58°30' W 050°18'0 0.0 010 / 41020.9 9.0 6.4 5.8
2015-Jun-24 17:00N 58°30' W 050°18'54 6.0 010 / 61021.0 6.1 4.9 5.5
2015-Jun-24 08:00N 57°42' W 051°06'27 5.4 020 / 61021.3 5.7 5.1 5.3
2015-Jun-24 03:00N 57°18' W 051°30'20 5.1 040 / 101020.6 5.6 5.0 6.0
2015-Jun-23 23:00N 57°00' W 051°48'0 0.0 040 / 141020.3 6.2 4.9 5.9
2015-Jun-23 22:00N 57°00' W 051°48'21 5.1 030 / 141020.1 6.4 5.0 6.0
2015-Jun-23 18:00N 56°42' W 052°06'7 6.8 010 / 141020.0 6.6 5.2 5.4
2015-Jun-23 17:00N 56°36' W 052°12'7 6.9 350 / 141019.9 6.0 5.0 6.0
2015-Jun-23 16:00N 56°30' W 052°18'14 4.6 360 / 121020.3 6.1 4.9 5.8
2015-Jun-23 13:00N 56°18' W 052°30'0 0.0 010 / 121020.4 6.2 5.0 5.5
2015-Jun-23 12:00N 56°18' W 052°30'16 7.8 030 / 121020.0 5.8 5.0 5.2
2015-Jun-23 10:00N 56°06' W 052°48'12 4.2 030 / 121019.5 5.7 4.8 4.9
2015-Jun-23 07:00N 55°54' W 052°54'7 6.9 090 / 161019.0 5.4 4.7 5.1
2015-Jun-23 06:00N 55°48' W 053°00'7 6.9 070 / 121019.0 5.0 4.5 5.2
2015-Jun-23 05:00N 55°42' W 053°06'0 0.0 080 / 121018.8 5.9 5.2 5.4
2015-Jun-23 03:00N 55°42' W 053°06'21 6.9 090 / 141018.8 5.1 5.1 5.4
2015-Jun-23 00:00N 55°24' W 053°24'21 4.1 080 / 101017.4 4.0 3.9 4.0
2015-Jun-22 19:00N 55°06' W 053°42'10 1.5 030 / 121017.0 3.4 3.3 3.4
2015-Jun-22 12:00N 55°06' W 053°24'9 9.1 020 / 101016.2 2.1 1.9 3.3
2015-Jun-22 11:00N 55°12' W 053°12'5110.1 010 / 121016.0 2.7 2.7 3.0
2015-Jun-22 06:00N 55°42' W 052°00'9 4.5 340 / 81014.4 4.6 4.5 5.5
2015-Jun-22 04:00N 55°48' W 051°48'67 5.6 350 / 81014.6 3.8 3.7 5.5
2015-Jun-21 16:00N 55°48' W 049°48'70 7.0 030 / 101011.2 6.0 5.3 5.7
2015-Jun-21 06:00N 55°00' W 048°18'27 6.9 090 / 161010.9 6.0 5.3 5.7
2015-Jun-21 02:00N 54°42' W 047°42'   060 / 121011.2 6.1 5.5 5.7
Track history (hours):
 
Tides and Currents Weather Stations Pressure Air Temp Water Temp Dewpoint Dewpoint Depression Visibility Wind Speed Wind Dir Waves Ship Positions

Oceanographic research ship Maria S. Merian (Germany)

Last reported at 2015-Jun-30 13:31 UTC. Time now 2015-Jun-30 14:23 UTC.
Position N 64°10' W 051°42'.

Length 94.8 m; beam 19.2 m; draft 6.5 m.

Type: Other ship. MMSI: 211753000.

Date/timePositionNaut miles runAvg speedWind from/ knotsBaromVisibWave heightAir tempDewpointWater temp
2015-Jun-30 13:31N 64°10' W 051°42'0 0.0
2015-Jun-30 12:31N 64°10' W 051°42'0 0.0
2015-Jun-30 11:33N 64°10' W 051°42'1 0.5
2015-Jun-30 10:33N 64°10' W 051°43'0 0.0
2015-Jun-30 09:33N 64°10' W 051°43'0 0.0
2015-Jun-30 08:33N 64°10' W 051°43'0 0.0
2015-Jun-30 07:33N 64°10' W 051°43'0 0.0
2015-Jun-30 06:33N 64°10' W 051°43'0 0.0
2015-Jun-30 05:33N 64°10' W 051°43'0 0.0
2015-Jun-30 04:33N 64°10' W 051°43'0 0.0
2015-Jun-30 03:33N 64°10' W 051°43'0 0.0
2015-Jun-30 02:33N 64°10' W 051°43'0 0.0
2015-Jun-30 01:33N 64°10' W 051°43'0 0.0
2015-Jun-30 00:33N 64°10' W 051°43'0 0.0
2015-Jun-29 23:34N 64°10' W 051°43'2 1.7
2015-Jun-29 22:33N 64°11' W 051°47'8 7.8
2015-Jun-29 21:33N 64°18' W 051°39'8 8.0
2015-Jun-29 20:33N 64°11' W 051°47'2 1.7
2015-Jun-29 19:33N 64°10' W 051°43'0 0.0
2015-Jun-29 18:33N 64°10' W 051°43'0 0.0
2015-Jun-29 17:32N 64°10' W 051°43'0 0.0
2015-Jun-29 16:32N 64°10' W 051°43'0 0.0
2015-Jun-29 15:31N 64°10' W 051°43'0 0.0
2015-Jun-29 14:31N 64°10' W 051°43'0 0.0
2015-Jun-29 13:33N 64°10' W 051°43'0 0.0
2015-Jun-29 12:33N 64°10' W 051°43'0 0.0
2015-Jun-29 11:34N 64°10' W 051°43'0 0.0
2015-Jun-29 10:33N 64°10' W 051°43'0 0.0
2015-Jun-29 09:33N 64°10' W 051°43'2 3.4
2015-Jun-29 09:00N 64°12' W 051°42'2 4.5 999 1015.0 7.4 4.6 5.4
2015-Jun-29 08:33N 64°10' W 051°43'0 0.0
2015-Jun-29 07:33N 64°10' W 051°43'0 0.0
2015-Jun-29 06:33N 64°10' W 051°43'2 3.4
2015-Jun-29 06:00N 64°12' W 051°42'2 4.5 200 / 61014.8 6.0 3.8 5.3
2015-Jun-29 05:33N 64°10' W 051°43'2 3.4
2015-Jun-29 05:00N 64°12' W 051°42'2 4.5 200 / 81014.4 6.2 3.3 5.0
2015-Jun-29 04:33N 64°10' W 051°43'0 0.0
2015-Jun-29 03:33N 64°10' W 051°43'0 0.0
2015-Jun-29 02:33N 64°10' W 051°43'2 3.4
2015-Jun-29 02:00N 64°12' W 051°42'2 4.4 190 / 81014.6 10.3 2.4 5.2
2015-Jun-29 01:33N 64°10' W 051°43'2 3.5
2015-Jun-29 01:00N 64°12' W 051°42'2 4.4 210 / 61014.4 10.8 2.9 5.0
2015-Jun-29 00:33N 64°10' W 051°43'2 3.4
2015-Jun-29 00:00N 64°12' W 051°42'2 4.5 999 / 21014.2 12.4 5.3 5.2
2015-Jun-28 23:34N 64°10' W 051°43'0 0.0
2015-Jun-28 22:33N 64°10' W 051°43'0 0.0
2015-Jun-28 21:34N 64°10' W 051°43'2 3.4
2015-Jun-28 21:00N 64°12' W 051°42'2 4.4 270 / 61013.7 14.1 4.1 5.1
2015-Jun-28 20:33N 64°10' W 051°43'0 0.0
2015-Jun-28 19:33N 64°10' W 051°43'0 0.0
2015-Jun-28 18:33N 64°10' W 051°43'0 0.0
2015-Jun-28 17:33N 64°10' W 051°43'0 0.0
2015-Jun-28 16:34N 64°10' W 051°43'0 0.0
2015-Jun-28 15:33N 64°10' W 051°43'0 0.0
2015-Jun-28 14:33N 64°10' W 051°43'0 0.0
2015-Jun-28 13:33N 64°10' W 051°43'0 0.0
2015-Jun-28 12:33N 64°10' W 051°43'0 0.0
2015-Jun-28 11:34N 64°10' W 051°43'0 0.0
2015-Jun-28 10:33N 64°10' W 051°43'0 0.0
2015-Jun-28 09:33N 64°10' W 051°43'2 3.4
2015-Jun-28 09:00N 64°12' W 051°42'2 4.4 300 / 41011.9 6.0 3.9 4.5
2015-Jun-28 08:33N 64°10' W 051°43'0 0.0
2015-Jun-28 07:33N 64°10' W 051°43'0 0.0
2015-Jun-28 06:33N 64°10' W 051°43'0 0.0
2015-Jun-28 05:33N 64°10' W 051°43'0 0.0
2015-Jun-28 04:33N 64°10' W 051°43'0 0.0
2015-Jun-28 03:33N 64°10' W 051°43'0 0.0
2015-Jun-28 02:34N 64°10' W 051°43'2 3.4
2015-Jun-28 02:00N 64°12' W 051°42'2 4.5 340 / 61011.4 8.8 4.1 4.3
2015-Jun-28 01:34N 64°10' W 051°43'2 3.4
2015-Jun-28 01:00N 64°12' W 051°42'2 4.5 320 / 61011.6 8.4 4.1 4.1
2015-Jun-28 00:33N 64°10' W 051°43'2 3.4
2015-Jun-28 00:00N 64°12' W 051°42'2 4.5 320 / 61011.3 10.2 4.3 4.0
2015-Jun-27 23:33N 64°10' W 051°43'0 0.0
2015-Jun-27 22:33N 64°10' W 051°43'2 3.4
2015-Jun-27 22:00N 64°12' W 051°42'2 4.5 320 / 81011.1 11.6 4.3 4.3
2015-Jun-27 21:33N 64°10' W 051°43'2 3.4
2015-Jun-27 21:00N 64°12' W 051°42'2 4.5 310 / 81011.3 11.9 3.6 4.3
2015-Jun-27 20:33N 64°10' W 051°43'0 0.0
2015-Jun-27 19:34N 64°10' W 051°43'0 0.0
2015-Jun-27 18:33N 64°10' W 051°43'2 3.4
2015-Jun-27 18:00N 64°12' W 051°42'2 4.5 300 / 81011.6 12.3 4.5 4.3
2015-Jun-27 17:33N 64°10' W 051°43'0 0.0
2015-Jun-27 16:33N 64°10' W 051°43'2 3.4
2015-Jun-27 16:00N 64°12' W 051°42'2 4.5 260 / 61011.9 12.7 5.4 4.1
2015-Jun-27 15:34N 64°10' W 051°43'0 0.0
2015-Jun-27 14:33N 64°10' W 051°43'2 3.4
2015-Jun-27 14:00N 64°12' W 051°42'2 4.5 999 1012.3 12.2 6.2 3.7
2015-Jun-27 13:34N 64°10' W 051°43'0 0.0
2015-Jun-27 12:33N 64°10' W 051°43'2 3.4
2015-Jun-27 12:00N 64°12' W 051°42'3 6.1 999 / 21012.7 8.6 6.8 3.6
2015-Jun-27 11:34N 64°09' W 051°44'813.8
2015-Jun-27 11:00N 64°06' W 052°00'1 1.3 350 / 41012.6 5.8 5.7 4.7
2015-Jun-27 10:33N 64°06' W 052°01'15 9.8
2015-Jun-27 09:00N 63°54' W 052°24'14 5.0 310 / 61012.6 3.1 3.0 3.3
2015-Jun-27 06:13N 63°41' W 052°13'3 5.0
2015-Jun-27 05:34N 63°38' W 052°14'5 4.7
2015-Jun-27 04:33N 63°33' W 052°18'5 5.0
2015-Jun-27 03:33N 63°31' W 052°28'4 6.7
2015-Jun-27 03:00N 63°30' W 052°36'1 3.3 320 / 81012.8 2.4 2.1 3.7
2015-Jun-27 02:33N 63°29' W 052°38'5 5.0
2015-Jun-27 01:34N 63°26' W 052°47'3 3.4
2015-Jun-27 00:34N 63°23' W 052°49'4 3.7
2015-Jun-26 23:33N 63°20' W 052°45'4 3.7
2015-Jun-26 22:33N 63°16' W 052°41'4 4.1
2015-Jun-26 21:33N 63°13' W 052°37'4 4.4
2015-Jun-26 20:34N 63°09' W 052°32'4 4.2
2015-Jun-26 19:33N 63°05' W 052°28'5 4.6
2015-Jun-26 18:33N 63°01' W 052°23'35 5.3
2015-Jun-26 12:00N 62°30' W 051°48'69 9.8 320 / 121013.3 2.7 2.2 1.9
2015-Jun-26 05:00N 61°30' W 050°36'8 8.3 330 / 141013.3 3.7 2.7 1.8
2015-Jun-26 04:00N 61°24' W 050°24'3311.1 330 / 141013.4 3.1 2.5 2.2
2015-Jun-26 01:00N 61°00' W 049°36'1110.6 330 / 141014.1 3.7 2.3 2.0
2015-Jun-26 00:00N 60°54' W 049°18'1514.9 320 / 121014.3 5.0 2.3 3.3
2015-Jun-25 23:00N 60°42' W 049°00'1110.7 330 / 121014.3 6.0 1.9 2.2
2015-Jun-25 22:00N 60°36' W 048°42'1110.7 340 / 161014.2 6.6 1.9 2.2
2015-Jun-25 21:00N 60°30' W 048°24'6 2.0 340 / 101014.4 6.4 1.2 2.1
2015-Jun-25 18:00N 60°24' W 048°24'13 4.5 340 / 81015.2 8.3 0.6 4.0
2015-Jun-25 15:00N 60°12' W 048°36'0 0.0 040 / 61016.0 6.6 4.9 5.4
2015-Jun-25 14:00N 60°12' W 048°36'13 6.7 360 / 41016.4 7.4 4.5 5.5
2015-Jun-25 12:00N 60°00' W 048°48'0 0.0 230 / 41016.4 7.8 3.4 5.2
2015-Jun-25 11:00N 60°00' W 048°48'0 0.0 999 / 21016.4 6.7 3.8 5.1
2015-Jun-25 10:00N 60°00' W 048°48'1313.4 190 / 61016.1 6.2 3.8 4.8
2015-Jun-25 09:00N 59°48' W 049°00'1212.4 999 / 21016.7 5.3 4.5 4.8
2015-Jun-25 08:00N 59°36' W 049°06'9 8.5 360 / 81016.8 5.0 4.2 5.1
2015-Jun-25 07:00N 59°30' W 049°18'7 2.2 350 / 121016.7 5.9 4.5 4.9
2015-Jun-25 04:00N 59°24' W 049°24'1212.4 330 / 161017.0 5.8 4.5 5.4
2015-Jun-25 03:00N 59°12' W 049°30'9 8.6 320 / 171017.5 6.2 5.2 5.5
2015-Jun-25 02:00N 59°06' W 049°42'7 3.4 310 / 161018.1 6.0 5.2 5.6
2015-Jun-25 00:00N 59°00' W 049°48'19 6.3 320 / 121019.5 6.6 5.5 6.3
2015-Jun-24 21:00N 58°42' W 050°00'9 8.7 310 / 41020.8 6.8 5.0 5.5
2015-Jun-24 20:00N 58°36' W 050°12'7 6.8 999 / 21020.8 6.6 5.1 6.2
2015-Jun-24 19:00N 58°30' W 050°18'0 0.0 010 / 41020.8 8.4 5.6 5.2
2015-Jun-24 18:00N 58°30' W 050°18'0 0.0 010 / 41020.9 9.0 6.4 5.8
2015-Jun-24 17:00N 58°30' W 050°18'54 6.0 010 / 61021.0 6.1 4.9 5.5
2015-Jun-24 08:00N 57°42' W 051°06'27 5.4 020 / 61021.3 5.7 5.1 5.3
2015-Jun-24 03:00N 57°18' W 051°30'20 5.1 040 / 101020.6 5.6 5.0 6.0
2015-Jun-23 23:00N 57°00' W 051°48'0 0.0 040 / 141020.3 6.2 4.9 5.9
2015-Jun-23 22:00N 57°00' W 051°48'21 5.1 030 / 141020.1 6.4 5.0 6.0
2015-Jun-23 18:00N 56°42' W 052°06'7 6.8 010 / 141020.0 6.6 5.2 5.4
2015-Jun-23 17:00N 56°36' W 052°12'7 6.9 350 / 141019.9 6.0 5.0 6.0
2015-Jun-23 16:00N 56°30' W 052°18'14 4.6 360 / 121020.3 6.1 4.9 5.8
2015-Jun-23 13:00N 56°18' W 052°30'0 0.0 010 / 121020.4 6.2 5.0 5.5
2015-Jun-23 12:00N 56°18' W 052°30'16 7.8 030 / 121020.0 5.8 5.0 5.2
2015-Jun-23 10:00N 56°06' W 052°48'12 4.2 030 / 121019.5 5.7 4.8 4.9
2015-Jun-23 07:00N 55°54' W 052°54'7 6.9 090 / 161019.0 5.4 4.7 5.1
2015-Jun-23 06:00N 55°48' W 053°00'7 6.9 070 / 121019.0 5.0 4.5 5.2
2015-Jun-23 05:00N 55°42' W 053°06'0 0.0 080 / 121018.8 5.9 5.2 5.4
2015-Jun-23 03:00N 55°42' W 053°06'21 6.9 090 / 141018.8 5.1 5.1 5.4
2015-Jun-23 00:00N 55°24' W 053°24'21 4.1 080 / 101017.4 4.0 3.9 4.0
2015-Jun-22 19:00N 55°06' W 053°42'10 1.5 030 / 121017.0 3.4 3.3 3.4
2015-Jun-22 12:00N 55°06' W 053°24'9 9.1 020 / 101016.2 2.1 1.9 3.3
2015-Jun-22 11:00N 55°12' W 053°12'5110.1 010 / 121016.0 2.7 2.7 3.0
2015-Jun-22 06:00N 55°42' W 052°00'9 4.5 340 / 81014.4 4.6 4.5 5.5
2015-Jun-22 04:00N 55°48' W 051°48'67 5.6 350 / 81014.6 3.8 3.7 5.5
2015-Jun-21 16:00N 55°48' W 049°48'70 7.0 030 / 101011.2 6.0 5.3 5.7
2015-Jun-21 06:00N 55°00' W 048°18'27 6.9 090 / 161010.9 6.0 5.3 5.7
2015-Jun-21 02:00N 54°42' W 047°42'   060 / 121011.2 6.1 5.5 5.7

Dump ship's entire track history